Terminal Aerodrome Forecast
Issued by NWS Blacksburg, VA

Current Version | Previous Version | Graphics & Text | Print | Product List | Glossary On
Versions: 1 2 3 4 5 6 7 8 9 10 11 12 13 14 15 16 17 18 19 20 21 22 23 24 25 26 27 28 29 30 31 32 33 34 35 36 37 38 39 40 41 42 43 44 45 46 47 48 49 50
000
FTUS41 KRNK 021138
TAFBLF
TAF
KBLF 021138Z 0212/0312 27006KT 3SM -SHRA BR OVC007
      TEMPO 0212/0216 1 1/2SM -SHRA BR OVC003
     FM021800 26007KT 4SM -SHRA BR VCTS SCT007 BKN015 OVC035CB
      TEMPO 0219/0223 1/2SM +TSRA OVC002CB
     FM030600 VRB04KT 1SM -SHRA BR OVC005=

USA.gov is the U.S. government's official web portal to all federal, state and local government web resources and services.